createdAt,value
2023-04-18T00:00:02.116Z,68.00
2023-04-18T00:01:02.486Z,71.00
2023-04-18T00:02:02.563Z,71.00
2023-04-18T00:03:04.500Z,71.00
2023-04-18T00:04:02.807Z,72.00
2023-04-18T00:05:02.973Z,72.00
2023-04-18T00:06:02.648Z,72.00
2023-04-18T00:07:03.047Z,71.00
2023-04-18T00:08:02.682Z,71.00
2023-04-18T00:09:02.757Z,71.00
2023-04-18T00:10:02.496Z,71.00
2023-04-18T00:11:02.900Z,72.00
2023-04-18T00:12:03.283Z,71.00
2023-04-18T00:13:02.907Z,69.00
2023-04-18T00:14:03.301Z,70.00
2023-04-18T00:15:03.331Z,69.00
2023-04-18T00:16:02.873Z,70.00
2023-04-18T00:17:02.521Z,72.00
2023-04-18T00:18:03.003Z,72.00
2023-04-18T00:19:02.378Z,73.00
2023-04-18T00:20:02.378Z,73.00
2023-04-18T00:21:03.005Z,73.00
2023-04-18T00:22:02.624Z,74.00
2023-04-18T00:23:02.832Z,74.00
2023-04-18T00:24:02.788Z,74.00
2023-04-18T00:25:03.135Z,74.00
2023-04-18T00:26:02.740Z,74.00
2023-04-18T00:27:02.772Z,74.00
2023-04-18T00:28:02.770Z,74.00
2023-04-18T00:29:02.237Z,74.00
2023-04-18T00:30:02.546Z,74.00
2023-04-18T00:31:02.865Z,74.00
2023-04-18T00:32:02.563Z,75.00
2023-04-18T00:33:03.046Z,73.00
2023-04-18T00:34:02.688Z,72.00
2023-04-18T00:35:02.992Z,71.00
2023-04-18T00:36:02.415Z,74.00
2023-04-18T00:37:02.311Z,75.00
2023-04-18T00:38:02.009Z,74.00
2023-04-18T00:39:01.896Z,73.00
2023-04-18T00:40:02.238Z,73.00
2023-04-18T00:41:02.197Z,72.00
2023-04-18T00:42:02.075Z,71.00
2023-04-18T00:43:02.431Z,72.00
2023-04-18T00:44:02.291Z,73.00
2023-04-18T00:45:02.113Z,74.00
2023-04-18T00:46:02.254Z,75.00
2023-04-18T00:47:01.969Z,75.00
2023-04-18T00:48:02.365Z,75.00
2023-04-18T00:49:01.999Z,75.00
2023-04-18T00:50:02.303Z,75.00
2023-04-18T00:51:02.334Z,75.00
2023-04-18T00:52:02.106Z,75.00
2023-04-18T00:53:02.446Z,76.00
2023-04-18T00:54:02.058Z,75.00
2023-04-18T00:55:02.700Z,75.00
2023-04-18T00:56:02.067Z,76.00
2023-04-18T00:57:02.793Z,76.00
2023-04-18T00:58:02.659Z,74.00
2023-04-18T00:59:02.990Z,74.00
2023-04-18T01:00:02.477Z,74.00
2023-04-18T01:01:03.020Z,75.00
2023-04-18T01:02:02.625Z,74.00
2023-04-18T01:03:03.458Z,73.00
2023-04-18T01:04:02.764Z,73.00
2023-04-18T01:05:02.939Z,73.00
2023-04-18T01:06:03.000Z,74.00
2023-04-18T01:07:03.239Z,75.00
2023-04-18T01:08:03.186Z,75.00
2023-04-18T01:09:03.278Z,75.00
2023-04-18T01:10:03.726Z,75.00
2023-04-18T01:11:03.190Z,75.00
2023-04-18T01:12:02.645Z,77.00
2023-04-18T01:13:02.955Z,77.00
2023-04-18T01:14:03.179Z,77.00
2023-04-18T01:15:02.956Z,77.00
2023-04-18T01:16:02.563Z,77.00
2023-04-18T01:17:03.041Z,77.00
2023-04-18T01:18:03.390Z,76.00
2023-04-18T01:19:03.028Z,76.00
2023-04-18T01:20:03.418Z,77.00
2023-04-18T01:21:03.297Z,75.00
2023-04-18T01:22:02.998Z,75.00
2023-04-18T01:23:03.271Z,74.00
2023-04-18T01:24:03.131Z,74.00
2023-04-18T01:25:03.522Z,74.00
2023-04-18T01:26:03.321Z,74.00
2023-04-18T01:27:03.008Z,74.00
2023-04-18T01:28:03.118Z,75.00
2023-04-18T01:29:03.483Z,75.00
2023-04-18T01:30:03.579Z,75.00
2023-04-18T01:31:02.957Z,76.00
2023-04-18T01:32:02.415Z,76.00
2023-04-18T01:33:02.916Z,77.00
2023-04-18T01:34:02.601Z,77.00
2023-04-18T01:35:02.347Z,77.00
2023-04-18T01:36:02.955Z,76.00
2023-04-18T01:37:03.185Z,76.00
2023-04-18T01:38:03.636Z,75.00
2023-04-18T01:39:03.012Z,74.00
2023-04-18T01:40:03.043Z,73.00
2023-04-18T01:41:03.424Z,73.00
2023-04-18T01:42:02.744Z,73.00
2023-04-18T01:43:03.135Z,74.00
2023-04-18T01:44:03.171Z,73.00
2023-04-18T01:45:02.825Z,73.00
2023-04-18T01:46:03.028Z,72.00
2023-04-18T01:47:03.261Z,73.00
2023-04-18T01:48:03.184Z,73.00
2023-04-18T01:49:02.900Z,75.00
2023-04-18T01:50:03.210Z,75.00
2023-04-18T01:51:03.251Z,73.00
2023-04-18T01:52:03.009Z,72.00
2023-04-18T01:53:02.621Z,71.00
2023-04-18T01:54:02.575Z,72.00
2023-04-18T01:55:02.997Z,72.00
2023-04-18T01:56:03.056Z,74.00
2023-04-18T01:57:03.344Z,72.00
2023-04-18T01:58:02.898Z,72.00
2023-04-18T01:59:03.453Z,71.00
2023-04-18T02:00:02.903Z,71.00
2023-04-18T02:01:03.476Z,73.00
2023-04-18T02:02:02.557Z,74.00
2023-04-18T02:03:03.129Z,73.00
2023-04-18T02:04:02.575Z,73.00
2023-04-18T02:05:03.016Z,73.00
2023-04-18T02:06:02.366Z,73.00
2023-04-18T02:07:02.747Z,72.00
2023-04-18T02:08:03.059Z,73.00
2023-04-18T02:09:02.645Z,74.00
2023-04-18T02:10:03.127Z,74.00
2023-04-18T02:11:02.561Z,74.00
2023-04-18T02:12:03.253Z,74.00
2023-04-18T02:13:02.734Z,74.00
2023-04-18T02:14:03.051Z,75.00
2023-04-18T02:15:03.299Z,75.00
2023-04-18T02:16:03.389Z,76.00
2023-04-18T02:17:02.613Z,76.00
2023-04-18T02:18:02.341Z,75.00
2023-04-18T02:19:02.301Z,75.00
2023-04-18T02:20:02.661Z,74.00
2023-04-18T02:21:02.311Z,73.00
2023-04-18T02:22:02.601Z,74.00
2023-04-18T02:23:02.634Z,75.00
2023-04-18T02:24:02.706Z,75.00
2023-04-18T02:25:02.339Z,75.00
2023-04-18T02:26:02.737Z,75.00
2023-04-18T02:27:03.132Z,76.00
2023-04-18T02:28:03.329Z,77.00
2023-04-18T02:29:02.761Z,78.00
2023-04-18T02:30:03.199Z,78.00
2023-04-18T02:31:03.115Z,77.00
2023-04-18T02:32:02.684Z,77.00
2023-04-18T02:33:02.289Z,78.00
2023-04-18T02:34:02.171Z,78.00
2023-04-18T02:35:02.479Z,78.00
2023-04-18T02:36:02.711Z,79.00
2023-04-18T02:37:02.541Z,78.00
2023-04-18T02:38:03.025Z,77.00
2023-04-18T02:39:02.384Z,76.00
2023-04-18T02:40:02.730Z,76.00
2023-04-18T02:41:03.006Z,76.00
2023-04-18T02:42:03.071Z,76.00
2023-04-18T02:43:02.813Z,77.00
2023-04-18T02:44:03.171Z,77.00
2023-04-18T02:45:02.834Z,76.00
2023-04-18T02:46:03.130Z,75.00
2023-04-18T02:47:02.682Z,75.00
2023-04-18T02:48:02.739Z,75.00
2023-04-18T02:49:02.500Z,75.00
2023-04-18T02:50:02.211Z,75.00
2023-04-18T02:51:02.531Z,75.00
2023-04-18T02:52:02.825Z,75.00
2023-04-18T02:53:02.911Z,74.00
2023-04-18T02:54:02.366Z,74.00
2023-04-18T02:55:02.345Z,75.00
2023-04-18T02:56:02.715Z,76.00
2023-04-18T02:57:02.986Z,75.00
2023-04-18T02:58:02.606Z,75.00
2023-04-18T02:59:02.949Z,76.00
2023-04-18T03:00:02.851Z,75.00
2023-04-18T03:01:02.630Z,76.00
2023-04-18T03:02:02.434Z,76.00
2023-04-18T03:03:02.693Z,77.00
2023-04-18T03:04:02.562Z,77.00
2023-04-18T03:05:02.438Z,75.00
2023-04-18T03:06:02.269Z,74.00
2023-04-18T03:07:01.777Z,74.00
2023-04-18T03:08:02.174Z,75.00
2023-04-18T03:09:01.978Z,74.00
2023-04-18T03:10:01.933Z,75.00
2023-04-18T03:11:02.201Z,76.00
2023-04-18T03:12:02.499Z,77.00
2023-04-18T03:13:02.130Z,77.00
2023-04-18T03:14:02.183Z,77.00
2023-04-18T03:15:02.494Z,77.00
2023-04-18T03:16:02.064Z,78.00
2023-04-18T03:17:02.239Z,78.00
2023-04-18T03:18:01.862Z,78.00
2023-04-18T03:19:02.097Z,78.00
2023-04-18T03:20:01.560Z,79.00
2023-04-18T03:21:02.192Z,78.00
2023-04-18T03:22:02.534Z,78.00
2023-04-18T03:23:02.278Z,78.00
2023-04-18T03:24:02.401Z,79.00
2023-04-18T03:25:02.163Z,79.00
2023-04-18T03:26:02.497Z,79.00
2023-04-18T03:27:02.484Z,78.00
2023-04-18T03:28:02.450Z,78.00
2023-04-18T03:29:02.731Z,77.00
2023-04-18T03:30:02.784Z,76.00
2023-04-18T03:31:02.883Z,76.00
2023-04-18T03:32:02.456Z,75.00
2023-04-18T03:33:03.011Z,75.00
2023-04-18T03:34:02.354Z,75.00
2023-04-18T03:35:02.778Z,76.00
2023-04-18T03:36:02.481Z,77.00
2023-04-18T03:37:01.934Z,77.00
2023-04-18T03:38:02.274Z,76.00
2023-04-18T03:39:01.949Z,76.00
2023-04-18T03:40:02.369Z,77.00
2023-04-18T03:41:02.057Z,77.00
2023-04-18T03:42:02.796Z,77.00
2023-04-18T03:43:02.501Z,78.00
2023-04-18T03:44:02.562Z,79.00
2023-04-18T03:45:02.926Z,78.00
2023-04-18T03:46:02.595Z,79.00
2023-04-18T03:47:02.053Z,79.00
2023-04-18T03:48:02.542Z,79.00
2023-04-18T03:49:02.043Z,79.00
2023-04-18T03:50:02.383Z,79.00
2023-04-18T03:51:02.644Z,79.00
2023-04-18T03:52:02.314Z,80.00
2023-04-18T03:53:02.000Z,80.00
2023-04-18T03:54:02.378Z,80.00
2023-04-18T03:55:02.507Z,79.00
2023-04-18T03:56:02.198Z,78.00
2023-04-18T03:57:01.500Z,78.00
2023-04-18T03:58:02.025Z,77.00
2023-04-18T03:59:01.577Z,77.00
2023-04-18T04:00:02.048Z,77.00
2023-04-18T04:01:01.893Z,76.00
2023-04-18T04:02:02.793Z,76.00
2023-04-18T04:03:02.509Z,76.00
2023-04-18T04:04:02.838Z,77.00
2023-04-18T04:05:02.471Z,77.00
2023-04-18T04:06:02.679Z,77.00
2023-04-18T04:07:02.817Z,77.00
2023-04-18T04:08:03.073Z,78.00
2023-04-18T04:09:02.781Z,78.00
2023-04-18T04:10:03.155Z,78.00
2023-04-18T04:11:03.082Z,78.00
2023-04-18T04:12:02.583Z,79.00
2023-04-18T04:13:02.493Z,78.00
2023-04-18T04:14:02.324Z,79.00
2023-04-18T04:15:01.934Z,79.00
2023-04-18T04:16:02.148Z,80.00
2023-04-18T04:17:02.508Z,80.00
2023-04-18T04:18:02.333Z,80.00
2023-04-18T04:19:02.837Z,80.00
2023-04-18T04:20:02.606Z,80.00
2023-04-18T04:21:02.360Z,80.00
2023-04-18T04:22:02.867Z,80.00
2023-04-18T04:23:02.707Z,80.00
2023-04-18T04:24:03.190Z,79.00
2023-04-18T04:25:02.674Z,79.00
2023-04-18T04:26:02.735Z,79.00
2023-04-18T04:27:02.082Z,78.00
2023-04-18T04:28:02.506Z,78.00
2023-04-18T04:29:01.952Z,78.00
2023-04-18T04:30:02.438Z,79.00
2023-04-18T04:31:02.492Z,79.00
2023-04-18T04:32:02.229Z,80.00
2023-04-18T04:33:02.508Z,80.00
2023-04-18T04:34:02.172Z,80.00
2023-04-18T04:35:02.602Z,79.00
2023-04-18T04:36:02.388Z,80.00
2023-04-18T04:37:02.376Z,79.00
2023-04-18T04:38:02.123Z,79.00
2023-04-18T04:39:02.286Z,80.00
2023-04-18T04:40:02.415Z,79.00
2023-04-18T04:41:02.056Z,79.00
2023-04-18T04:42:02.015Z,78.00
2023-04-18T04:43:02.155Z,78.00
2023-04-18T04:44:02.248Z,78.00
2023-04-18T04:45:01.830Z,80.00
2023-04-18T04:46:02.132Z,80.00
2023-04-18T04:47:02.666Z,81.00
2023-04-18T04:48:02.754Z,81.00
2023-04-18T04:49:02.402Z,81.00
2023-04-18T04:50:02.923Z,81.00
2023-04-18T04:51:02.658Z,81.00
2023-04-18T04:52:02.969Z,81.00
2023-04-18T04:53:02.847Z,82.00
2023-04-18T04:54:03.074Z,81.00
2023-04-18T04:55:02.666Z,81.00
2023-04-18T04:56:02.446Z,82.00
2023-04-18T04:57:02.535Z,82.00
2023-04-18T04:58:02.423Z,82.00
2023-04-18T04:59:02.523Z,83.00
2023-04-18T05:00:02.657Z,82.00
2023-04-18T05:01:02.839Z,81.00
2023-04-18T05:02:02.279Z,81.00
2023-04-18T05:03:02.835Z,81.00
2023-04-18T05:04:02.431Z,80.00
2023-04-18T05:05:02.670Z,80.00
2023-04-18T05:06:02.214Z,80.00
2023-04-18T05:07:02.669Z,80.00
2023-04-18T05:08:02.836Z,80.00
2023-04-18T05:09:02.610Z,80.00
2023-04-18T05:10:02.494Z,80.00
2023-04-18T05:11:02.952Z,80.00
2023-04-18T05:12:03.163Z,79.00
2023-04-18T05:13:03.350Z,79.00
2023-04-18T05:14:02.967Z,79.00
2023-04-18T05:15:02.817Z,80.00
2023-04-18T05:16:03.089Z,79.00
2023-04-18T05:17:02.100Z,79.00
2023-04-18T05:18:02.384Z,79.00
2023-04-18T05:19:01.958Z,79.00
2023-04-18T05:20:02.645Z,79.00
2023-04-18T05:21:02.131Z,78.00
2023-04-18T05:22:02.776Z,78.00
2023-04-18T05:23:02.838Z,78.00
2023-04-18T05:24:02.482Z,77.00
2023-04-18T05:25:02.450Z,77.00
2023-04-18T05:26:02.728Z,77.00
2023-04-18T05:27:02.274Z,77.00
2023-04-18T05:28:01.959Z,77.00
2023-04-18T05:29:02.158Z,77.00
2023-04-18T05:30:01.900Z,77.00
2023-04-18T05:31:02.421Z,77.00
2023-04-18T05:32:02.054Z,78.00
2023-04-18T05:33:02.285Z,78.00
2023-04-18T05:34:02.102Z,77.00
2023-04-18T05:35:01.910Z,77.00
2023-04-18T05:36:02.383Z,77.00
2023-04-18T05:37:02.587Z,77.00
2023-04-18T05:38:02.301Z,76.00
2023-04-18T05:39:02.244Z,77.00
2023-04-18T05:40:02.477Z,77.00
2023-04-18T05:41:02.625Z,77.00
2023-04-18T05:42:02.630Z,78.00
2023-04-18T05:43:02.690Z,77.00
2023-04-18T05:44:05.636Z,78.00
2023-04-18T05:45:02.957Z,77.00
2023-04-18T05:46:02.790Z,77.00
2023-04-18T05:47:02.502Z,77.00
2023-04-18T05:48:02.103Z,77.00
2023-04-18T05:49:01.927Z,77.00
2023-04-18T05:50:02.346Z,77.00
2023-04-18T05:51:02.149Z,77.00
2023-04-18T05:52:02.378Z,76.00
2023-04-18T05:53:02.386Z,76.00
2023-04-18T05:54:02.204Z,76.00
2023-04-18T05:55:02.526Z,76.00
2023-04-18T05:56:02.632Z,76.00
2023-04-18T05:57:04.278Z,80.00
2023-04-18T05:58:02.331Z,82.00
2023-04-18T05:59:02.460Z,82.00
2023-04-18T06:00:02.803Z,83.00
2023-04-18T06:01:02.731Z,84.00
2023-04-18T06:02:02.562Z,84.00
2023-04-18T06:03:02.745Z,84.00
2023-04-18T06:04:03.172Z,84.00
2023-04-18T06:05:02.829Z,84.00
2023-04-18T06:06:03.172Z,84.00
2023-04-18T06:07:01.935Z,83.00
2023-04-18T06:08:02.421Z,83.00
2023-04-18T06:09:02.160Z,83.00
2023-04-18T06:10:02.315Z,83.00
2023-04-18T06:11:02.377Z,82.00
2023-04-18T06:12:03.020Z,82.00
2023-04-18T06:13:02.912Z,82.00
2023-04-18T06:14:02.425Z,81.00
2023-04-18T06:15:02.560Z,81.00
2023-04-18T06:16:02.923Z,81.00
2023-04-18T06:17:03.071Z,80.00
2023-04-18T06:18:02.725Z,80.00
2023-04-18T06:19:02.421Z,79.00
2023-04-18T06:20:02.965Z,79.00
2023-04-18T06:21:02.490Z,79.00
2023-04-18T06:22:02.193Z,78.00
2023-04-18T06:23:01.807Z,78.00
2023-04-18T06:24:02.452Z,78.00
2023-04-18T06:25:02.069Z,78.00
2023-04-18T06:26:01.924Z,77.00
2023-04-18T06:27:01.851Z,77.00
2023-04-18T06:28:02.466Z,76.00
2023-04-18T06:29:02.409Z,76.00
2023-04-18T06:30:01.912Z,76.00
2023-04-18T06:31:02.330Z,76.00
2023-04-18T06:32:02.189Z,75.00
2023-04-18T06:33:02.006Z,74.00
2023-04-18T06:34:02.401Z,74.00
2023-04-18T06:35:02.352Z,73.00
2023-04-18T06:36:02.089Z,73.00
2023-04-18T06:37:02.034Z,72.00
2023-04-18T06:38:02.087Z,72.00
2023-04-18T06:39:02.009Z,71.00
2023-04-18T06:40:01.922Z,71.00
2023-04-18T06:41:01.614Z,71.00
2023-04-18T06:42:01.997Z,70.00
2023-04-18T06:43:02.426Z,70.00
2023-04-18T06:44:04.169Z,70.00
2023-04-18T06:45:02.509Z,70.00
2023-04-18T06:46:02.465Z,70.00
2023-04-18T06:47:02.138Z,70.00
2023-04-18T06:48:02.469Z,70.00
2023-04-18T06:49:02.560Z,70.00
2023-04-18T06:50:02.035Z,70.00
2023-04-18T06:51:01.936Z,70.00
2023-04-18T06:52:02.146Z,70.00
2023-04-18T06:53:02.376Z,71.00
2023-04-18T06:54:02.141Z,70.00
2023-04-18T06:55:02.617Z,71.00
2023-04-18T06:56:02.261Z,71.00
2023-04-18T06:57:02.342Z,71.00
2023-04-18T06:58:02.098Z,71.00
2023-04-18T06:59:02.565Z,71.00
2023-04-18T07:00:02.629Z,70.00
2023-04-18T07:01:02.286Z,70.00
2023-04-18T07:02:04.034Z,70.00
2023-04-18T07:03:03.956Z,70.00
2023-04-18T07:04:03.696Z,70.00
2023-04-18T07:05:03.930Z,70.00
2023-04-18T07:06:03.508Z,70.00
2023-04-18T07:07:03.683Z,70.00
2023-04-18T07:08:03.497Z,70.00
2023-04-18T07:09:03.881Z,69.00
2023-04-18T07:10:03.914Z,69.00
2023-04-18T07:11:03.570Z,70.00
2023-04-18T07:12:02.757Z,70.00
2023-04-18T07:13:02.795Z,69.00
2023-04-18T07:14:03.205Z,68.00
2023-04-18T07:15:03.189Z,68.00
2023-04-18T07:16:03.059Z,68.00
2023-04-18T07:17:02.921Z,69.00
2023-04-18T07:18:03.299Z,68.00
2023-04-18T07:19:03.406Z,68.00
2023-04-18T07:20:03.098Z,69.00
2023-04-18T07:21:02.907Z,69.00
2023-04-18T07:22:02.519Z,69.00
2023-04-18T07:23:02.939Z,68.00
2023-04-18T07:24:02.562Z,68.00
2023-04-18T07:25:02.880Z,68.00
2023-04-18T07:26:03.062Z,68.00
2023-04-18T07:27:02.585Z,67.00
2023-04-18T07:28:02.873Z,67.00
2023-04-18T07:29:03.113Z,66.00
2023-04-18T07:30:02.679Z,67.00
2023-04-18T07:31:02.522Z,67.00
2023-04-18T07:32:02.868Z,67.00
2023-04-18T07:33:02.916Z,67.00
2023-04-18T07:34:03.012Z,66.00
2023-04-18T07:35:02.791Z,66.00
2023-04-18T07:36:03.298Z,66.00
2023-04-18T07:37:03.104Z,66.00
2023-04-18T07:38:03.176Z,65.00
2023-04-18T07:39:02.931Z,66.00
2023-04-18T07:40:03.492Z,66.00
2023-04-18T07:41:03.071Z,66.00
2023-04-18T07:42:03.637Z,65.00
2023-04-18T07:43:03.294Z,66.00
2023-04-18T07:44:03.681Z,65.00
2023-04-18T07:45:03.271Z,66.00
2023-04-18T07:46:03.232Z,66.00
2023-04-18T07:47:03.896Z,66.00
2023-04-18T07:48:03.313Z,64.00
2023-04-18T07:49:03.266Z,64.00
2023-04-18T07:50:03.834Z,62.00
2023-04-18T07:51:03.475Z,61.00
2023-04-18T07:52:02.818Z,62.00
2023-04-18T07:53:03.076Z,63.00
2023-04-18T07:54:02.665Z,64.00
2023-04-18T07:55:03.204Z,64.00
2023-04-18T07:56:03.026Z,63.00
2023-04-18T07:57:02.939Z,60.00
2023-04-18T07:58:02.980Z,61.00
2023-04-18T07:59:03.358Z,61.00
2023-04-18T08:00:03.317Z,60.00
2023-04-18T08:01:03.096Z,60.00
2023-04-18T08:02:02.679Z,60.00
2023-04-18T08:03:02.687Z,59.00
2023-04-18T08:04:02.717Z,59.00
2023-04-18T08:05:03.082Z,58.00
2023-04-18T08:06:02.596Z,58.00
2023-04-18T08:07:03.000Z,59.00
2023-04-18T08:08:03.125Z,59.00
2023-04-18T08:09:03.344Z,59.00
2023-04-18T08:10:03.305Z,59.00
2023-04-18T08:11:03.132Z,59.00
2023-04-18T08:12:02.605Z,60.00
2023-04-18T08:13:02.470Z,61.00
2023-04-18T08:14:02.876Z,61.00
2023-04-18T08:15:02.715Z,60.00
2023-04-18T08:16:02.529Z,60.00
2023-04-18T08:17:03.255Z,60.00
2023-04-18T08:18:03.150Z,60.00
2023-04-18T08:19:02.997Z,60.00
2023-04-18T08:20:03.502Z,61.00
2023-04-18T08:21:03.355Z,60.00
2023-04-18T08:22:02.730Z,61.00
2023-04-18T08:23:08.642Z,60.00
2023-04-18T08:24:02.586Z,60.00
2023-04-18T08:25:05.397Z,60.00
2023-04-18T08:26:02.386Z,60.00
2023-04-18T08:27:02.870Z,60.00
2023-04-18T08:28:02.749Z,61.00
2023-04-18T08:29:02.698Z,60.00
2023-04-18T08:30:03.162Z,60.00
2023-04-18T08:31:02.667Z,60.00
2023-04-18T08:32:03.557Z,61.00
2023-04-18T08:33:03.311Z,60.00
2023-04-18T08:34:04.964Z,60.00
2023-04-18T08:35:03.557Z,60.00
2023-04-18T08:36:03.177Z,60.00
2023-04-18T08:37:02.987Z,60.00
2023-04-18T08:38:02.561Z,60.00
2023-04-18T08:39:03.100Z,60.00
2023-04-18T08:40:02.718Z,61.00
2023-04-18T08:41:02.787Z,60.00
2023-04-18T08:42:03.322Z,59.00
2023-04-18T08:43:03.010Z,59.00
2023-04-18T08:44:03.526Z,60.00
2023-04-18T08:45:03.158Z,59.00
2023-04-18T08:46:03.220Z,60.00
2023-04-18T08:47:02.781Z,59.00
2023-04-18T08:48:02.807Z,59.00
2023-04-18T08:49:02.696Z,59.00
2023-04-18T08:50:02.644Z,59.00
2023-04-18T08:51:02.461Z,58.00
2023-04-18T08:52:02.519Z,58.00
2023-04-18T08:53:02.342Z,59.00
2023-04-18T08:54:02.666Z,59.00
2023-04-18T08:55:02.189Z,59.00
2023-04-18T08:56:02.608Z,59.00
2023-04-18T08:57:02.931Z,59.00
2023-04-18T08:58:02.831Z,58.00
2023-04-18T08:59:02.981Z,59.00
2023-04-18T09:00:02.533Z,59.00
2023-04-18T09:01:03.167Z,58.00
2023-04-18T09:02:03.150Z,57.00
2023-04-18T09:03:03.198Z,58.00
2023-04-18T09:04:02.894Z,58.00
2023-04-18T09:05:03.271Z,58.00
2023-04-18T09:06:03.152Z,58.00
2023-04-18T09:07:03.684Z,58.00
2023-04-18T09:08:03.796Z,58.00
2023-04-18T09:09:03.279Z,58.00
2023-04-18T09:10:03.659Z,58.00
2023-04-18T09:11:03.221Z,57.00
2023-04-18T09:12:03.595Z,58.00
2023-04-18T09:13:03.910Z,58.00
2023-04-18T09:14:03.465Z,58.00
2023-04-18T09:15:03.892Z,59.00
2023-04-18T09:16:03.910Z,58.00
2023-04-18T09:17:03.315Z,57.00
2023-04-18T09:18:03.204Z,58.00
2023-04-18T09:19:04.170Z,58.00
2023-04-18T09:20:03.066Z,57.00
2023-04-18T09:21:02.783Z,57.00
2023-04-18T09:22:02.953Z,58.00
2023-04-18T09:23:03.313Z,58.00
2023-04-18T09:24:02.966Z,57.00
2023-04-18T09:25:03.449Z,58.00
2023-04-18T09:26:03.136Z,57.00
2023-04-18T09:27:03.601Z,56.00
2023-04-18T09:28:03.440Z,57.00
2023-04-18T09:29:03.165Z,56.00
2023-04-18T09:30:03.033Z,55.00
2023-04-18T09:31:03.473Z,56.00
2023-04-18T09:32:03.203Z,55.00
2023-04-18T09:33:03.250Z,55.00
2023-04-18T09:34:02.714Z,55.00
2023-04-18T09:35:04.333Z,54.00
2023-04-18T09:36:02.668Z,53.00
2023-04-18T09:37:03.844Z,55.00
2023-04-18T09:38:03.421Z,54.00
2023-04-18T09:39:03.225Z,54.00
2023-04-18T09:40:03.808Z,53.00
2023-04-18T09:41:03.457Z,52.00
2023-04-18T09:42:02.492Z,53.00
2023-04-18T09:43:02.883Z,53.00
2023-04-18T09:44:02.729Z,51.00
2023-04-18T09:45:03.127Z,52.00
2023-04-18T09:46:02.669Z,51.00
2023-04-18T09:47:02.509Z,52.00
2023-04-18T09:48:02.967Z,53.00
2023-04-18T09:49:02.912Z,52.00
2023-04-18T09:50:02.983Z,51.00
2023-04-18T09:51:03.111Z,51.00
2023-04-18T09:52:03.357Z,51.00
2023-04-18T09:53:03.109Z,51.00
2023-04-18T09:54:03.055Z,51.00
2023-04-18T09:55:02.839Z,51.00
2023-04-18T09:56:02.956Z,51.00
2023-04-18T09:57:03.162Z,50.00
2023-04-18T09:58:03.807Z,51.00
2023-04-18T09:59:03.762Z,51.00
2023-04-18T10:00:03.309Z,52.00
2023-04-18T10:01:03.479Z,52.00
2023-04-18T10:02:02.819Z,52.00
2023-04-18T10:03:03.051Z,51.00
2023-04-18T10:04:02.874Z,51.00
2023-04-18T10:05:02.976Z,51.00
2023-04-18T10:06:02.790Z,52.00
2023-04-18T10:07:03.557Z,52.00
2023-04-18T10:08:03.391Z,51.00
2023-04-18T10:09:03.273Z,51.00
2023-04-18T10:10:03.341Z,50.00
2023-04-18T10:11:03.639Z,50.00
2023-04-18T10:12:02.863Z,50.00
2023-04-18T10:13:02.587Z,50.00
2023-04-18T10:14:02.658Z,50.00
2023-04-18T10:15:02.733Z,51.00
2023-04-18T10:16:02.722Z,51.00
2023-04-18T10:17:02.731Z,51.00
2023-04-18T10:18:05.840Z,52.00
2023-04-18T10:19:03.285Z,52.00
2023-04-18T10:20:02.997Z,51.00
2023-04-18T10:21:03.094Z,52.00
2023-04-18T10:22:02.919Z,52.00
2023-04-18T10:23:03.304Z,52.00
2023-04-18T10:24:03.518Z,52.00
2023-04-18T10:25:03.225Z,52.00
2023-04-18T10:26:02.946Z,52.00
2023-04-18T10:27:02.620Z,53.00
2023-04-18T10:28:02.652Z,53.00
2023-04-18T10:29:03.125Z,53.00
2023-04-18T10:30:02.430Z,52.00
2023-04-18T10:31:02.700Z,52.00
2023-04-18T10:32:03.076Z,52.00
2023-04-18T10:33:03.157Z,52.00
2023-04-18T10:34:05.583Z,52.00
2023-04-18T10:35:03.139Z,52.00
2023-04-18T10:36:03.251Z,52.00
2023-04-18T10:37:02.315Z,53.00
2023-04-18T10:38:02.264Z,52.00
2023-04-18T10:39:02.484Z,52.00
2023-04-18T10:40:02.679Z,52.00
2023-04-18T10:41:02.632Z,52.00
2023-04-18T10:42:02.806Z,53.00
2023-04-18T10:43:02.844Z,53.00
2023-04-18T10:44:03.197Z,52.00
2023-04-18T10:45:02.808Z,52.00
2023-04-18T10:46:02.709Z,52.00
2023-04-18T10:47:02.556Z,52.00
2023-04-18T10:48:02.326Z,52.00
2023-04-18T10:49:02.912Z,53.00
2023-04-18T10:50:05.932Z,53.00
2023-04-18T10:51:02.695Z,53.00
2023-04-18T10:52:03.089Z,53.00
2023-04-18T10:53:02.897Z,53.00
2023-04-18T10:54:03.234Z,53.00
2023-04-18T10:55:03.134Z,53.00
2023-04-18T10:56:02.944Z,53.00
2023-04-18T10:57:02.633Z,53.00
2023-04-18T10:58:02.738Z,53.00
2023-04-18T10:59:02.944Z,53.00
2023-04-18T11:00:02.771Z,54.00
2023-04-18T11:01:02.948Z,54.00
2023-04-18T11:02:02.634Z,54.00
2023-04-18T11:03:02.944Z,53.00
2023-04-18T11:04:02.977Z,53.00
2023-04-18T11:05:02.452Z,53.00
2023-04-18T11:06:02.849Z,53.00
2023-04-18T11:07:02.004Z,54.00
2023-04-18T11:08:01.726Z,54.00
2023-04-18T11:09:01.931Z,54.00
2023-04-18T11:10:02.022Z,54.00
2023-04-18T11:11:02.133Z,54.00
2023-04-18T11:12:02.396Z,54.00
2023-04-18T11:13:02.373Z,54.00
2023-04-18T11:14:02.451Z,54.00
2023-04-18T11:15:02.204Z,54.00
2023-04-18T11:16:02.270Z,54.00
2023-04-18T11:17:02.565Z,54.00
2023-04-18T11:18:02.615Z,53.00
2023-04-18T11:19:02.701Z,54.00
2023-04-18T11:20:02.520Z,54.00
2023-04-18T11:21:02.603Z,53.00
2023-04-18T11:22:02.519Z,53.00
2023-04-18T11:23:02.380Z,52.00
2023-04-18T11:24:02.415Z,52.00
2023-04-18T11:25:02.509Z,52.00
2023-04-18T11:26:02.427Z,51.00
2023-04-18T11:27:02.162Z,52.00
2023-04-18T11:28:02.332Z,52.00
2023-04-18T11:29:02.080Z,52.00
2023-04-18T11:30:02.271Z,52.00
2023-04-18T11:31:01.978Z,53.00
2023-04-18T11:32:02.580Z,52.00
2023-04-18T11:33:02.722Z,52.00
2023-04-18T11:34:02.588Z,52.00
2023-04-18T11:35:02.381Z,52.00
2023-04-18T11:36:02.441Z,53.00
2023-04-18T11:37:02.248Z,53.00
2023-04-18T11:38:02.322Z,54.00
2023-04-18T11:39:01.958Z,54.00
2023-04-18T11:40:02.362Z,53.00
2023-04-18T11:41:02.076Z,54.00
2023-04-18T11:42:02.751Z,52.00
2023-04-18T11:43:02.790Z,52.00
2023-04-18T11:44:02.689Z,52.00
2023-04-18T11:45:02.526Z,53.00
2023-04-18T11:46:02.444Z,53.00
2023-04-18T11:47:03.011Z,52.00
2023-04-18T11:48:02.534Z,51.00
2023-04-18T11:49:02.828Z,51.00
2023-04-18T11:50:02.955Z,50.00
2023-04-18T11:51:03.145Z,50.00
2023-04-18T11:52:02.264Z,49.00
2023-04-18T11:53:02.285Z,49.00
2023-04-18T11:54:01.815Z,47.00
2023-04-18T11:55:01.858Z,47.00
2023-04-18T11:56:01.868Z,48.00
2023-04-18T11:57:02.339Z,48.00
2023-04-18T11:58:01.884Z,48.00
2023-04-18T11:59:02.219Z,49.00
2023-04-18T12:00:02.579Z,48.00
2023-04-18T12:01:01.961Z,48.00
2023-04-18T12:02:14.421Z,48.00
2023-04-18T12:03:02.455Z,46.00
2023-04-18T12:04:02.987Z,47.00
2023-04-18T12:05:02.677Z,47.00
2023-04-18T12:06:02.446Z,47.00
2023-04-18T12:07:03.039Z,46.00
2023-04-18T12:08:03.079Z,46.00
2023-04-18T12:09:02.840Z,46.00
2023-04-18T12:10:02.960Z,47.00
2023-04-18T12:11:02.870Z,46.00
2023-04-18T12:12:02.644Z,46.00
2023-04-18T12:13:02.445Z,46.00
2023-04-18T12:14:04.031Z,47.00
2023-04-18T12:15:02.300Z,47.00
2023-04-18T12:16:02.547Z,46.00
2023-04-18T12:17:03.114Z,46.00
2023-04-18T12:18:03.200Z,46.00
2023-04-18T12:19:03.044Z,47.00
2023-04-18T12:20:02.612Z,46.00
2023-04-18T12:21:02.721Z,46.00
2023-04-18T12:22:02.164Z,46.00
2023-04-18T12:23:02.232Z,46.00
2023-04-18T12:24:02.335Z,47.00
2023-04-18T12:25:02.550Z,47.00
2023-04-18T12:26:02.785Z,46.00
2023-04-18T12:27:02.390Z,47.00
2023-04-18T12:28:02.465Z,46.00
2023-04-18T12:29:02.884Z,46.00
2023-04-18T12:30:02.987Z,47.00
2023-04-18T12:31:02.817Z,48.00
2023-04-18T12:32:02.771Z,46.00
2023-04-18T12:33:03.138Z,47.00
2023-04-18T12:34:02.566Z,47.00
2023-04-18T12:35:02.599Z,47.00
2023-04-18T12:36:02.733Z,47.00
2023-04-18T12:37:02.748Z,47.00
2023-04-18T12:38:02.461Z,48.00
2023-04-18T12:39:02.064Z,48.00
2023-04-18T12:40:01.966Z,48.00
2023-04-18T12:41:01.959Z,47.00
2023-04-18T12:42:01.967Z,47.00
2023-04-18T12:43:03.872Z,47.00
2023-04-18T12:44:02.546Z,46.00
2023-04-18T12:45:02.538Z,46.00
2023-04-18T12:46:02.830Z,47.00
2023-04-18T12:47:02.771Z,46.00
2023-04-18T12:48:02.388Z,46.00
2023-04-18T12:49:02.274Z,45.00
2023-04-18T12:50:02.443Z,45.00
2023-04-18T12:51:02.127Z,45.00
2023-04-18T12:52:02.114Z,45.00